createdAt,value
2022-11-14T00:01:54.898Z,7.65
2022-11-14T00:04:40.635Z,7.72
2022-11-14T00:07:29.522Z,7.72
2022-11-14T00:10:15.723Z,8.50
2022-11-14T00:13:00.869Z,7.40
2022-11-14T00:15:50.472Z,7.63
2022-11-14T00:18:36.079Z,7.05
2022-11-14T00:21:21.254Z,7.63
2022-11-14T00:24:06.830Z,8.02
2022-11-14T00:26:52.274Z,7.60
2022-11-14T00:29:37.524Z,7.82
2022-11-14T00:32:22.642Z,7.38
2022-11-14T00:35:09.354Z,8.35
2022-11-14T00:37:54.449Z,7.22
2022-11-14T00:40:39.963Z,7.70
2022-11-14T00:43:25.447Z,8.02
2022-11-14T00:46:11.160Z,8.55
2022-11-14T00:48:56.677Z,7.60
2022-11-14T00:51:42.153Z,7.80
2022-11-14T00:54:27.690Z,8.55
2022-11-14T00:57:13.080Z,6.72
2022-11-14T00:59:58.630Z,7.95
2022-11-14T01:02:43.927Z,8.02
2022-11-14T01:05:29.441Z,8.10
2022-11-14T01:08:16.216Z,7.18
2022-11-14T01:11:08.906Z,7.53
2022-11-14T01:13:54.691Z,8.25
2022-11-14T01:16:40.082Z,7.85
2022-11-14T01:19:25.613Z,7.88
2022-11-14T01:22:11.119Z,7.72
2022-11-14T01:24:58.372Z,7.00
2022-11-14T01:27:44.068Z,7.03
2022-11-14T01:30:29.495Z,7.35
2022-11-14T01:33:14.976Z,6.95
2022-11-14T01:36:00.554Z,7.70
2022-11-14T01:38:46.599Z,6.80
2022-11-14T01:41:31.711Z,7.20
2022-11-14T01:44:38.330Z,7.32
2022-11-14T01:47:28.987Z,7.30
2022-11-14T01:50:14.664Z,8.07
2022-11-14T01:52:59.807Z,7.68
2022-11-14T01:55:45.782Z,7.05
2022-11-14T01:58:33.772Z,8.43
2022-11-14T02:01:19.413Z,7.28
2022-11-14T02:04:06.752Z,7.65
2022-11-14T02:06:57.308Z,7.38
2022-11-14T02:09:46.669Z,7.55
2022-11-14T02:12:32.850Z,6.85
2022-11-14T02:15:18.514Z,7.43
2022-11-14T02:18:04.848Z,6.57
2022-11-14T02:20:50.422Z,7.68
2022-11-14T02:23:35.923Z,7.22
2022-11-14T02:26:22.588Z,6.90
2022-11-14T02:29:09.893Z,7.85
2022-11-14T02:31:57.056Z,7.05
2022-11-14T02:34:42.398Z,7.05
2022-11-14T02:37:27.986Z,7.00
2022-11-14T02:40:13.421Z,6.88
2022-11-14T02:42:59.280Z,7.30
2022-11-14T02:45:44.854Z,7.63
2022-11-14T02:48:30.375Z,6.95
2022-11-14T02:51:16.058Z,7.22
2022-11-14T02:54:01.348Z,6.75
2022-11-14T02:56:46.763Z,7.47
2022-11-14T02:59:32.231Z,7.03
2022-11-14T03:02:17.743Z,7.28
2022-11-14T03:05:03.393Z,7.43
2022-11-14T03:07:48.545Z,7.25
2022-11-14T03:10:34.095Z,7.03
2022-11-14T03:13:19.787Z,7.55
2022-11-14T03:16:11.294Z,6.53
2022-11-14T03:18:56.554Z,7.57
2022-11-14T03:21:42.102Z,7.20
2022-11-14T03:24:27.637Z,6.72
2022-11-14T03:27:12.946Z,7.35
2022-11-14T03:29:58.260Z,6.82
2022-11-14T03:32:43.930Z,6.93
2022-11-14T03:35:29.153Z,7.20
2022-11-14T03:38:14.630Z,6.95
2022-11-14T03:41:00.850Z,6.75
2022-11-14T03:43:46.167Z,6.70
2022-11-14T03:46:31.752Z,6.88
2022-11-14T03:49:17.218Z,6.00
2022-11-14T03:52:03.083Z,7.10
2022-11-14T03:54:48.611Z,6.50
2022-11-14T03:57:33.926Z,6.32
2022-11-14T04:00:19.816Z,6.53
2022-11-14T04:03:05.414Z,6.88
2022-11-14T04:05:51.274Z,6.90
2022-11-14T04:08:36.502Z,7.47
2022-11-14T04:11:22.182Z,6.38
2022-11-14T04:14:07.414Z,6.32
2022-11-14T04:16:52.786Z,6.65
2022-11-14T04:19:38.336Z,7.07
2022-11-14T04:22:23.553Z,5.72
2022-11-14T04:25:09.376Z,6.25
2022-11-14T04:27:55.056Z,6.35
2022-11-14T04:30:40.891Z,6.55
2022-11-14T04:33:26.597Z,6.18
2022-11-14T04:36:11.857Z,6.28
2022-11-14T04:38:57.368Z,7.20
2022-11-14T04:41:42.858Z,5.95
2022-11-14T04:44:28.802Z,6.45
2022-11-14T04:47:14.238Z,5.68
2022-11-14T04:49:59.807Z,5.82
2022-11-14T04:52:45.493Z,5.65
2022-11-14T04:55:31.102Z,5.72
2022-11-14T04:58:16.254Z,6.07
2022-11-14T05:01:08.375Z,6.43
2022-11-14T05:03:54.041Z,5.97
2022-11-14T05:06:39.619Z,5.25
2022-11-14T05:09:25.087Z,5.85
2022-11-14T05:12:10.506Z,5.70
2022-11-14T05:14:55.981Z,6.25
2022-11-14T05:17:41.475Z,5.47
2022-11-14T05:20:27.001Z,5.80
2022-11-14T05:23:23.805Z,5.80
2022-11-14T05:26:11.527Z,5.72
2022-11-14T05:28:56.749Z,5.65
2022-11-14T05:31:42.267Z,5.97
2022-11-14T05:34:28.055Z,5.05
2022-11-14T05:37:13.317Z,5.47
2022-11-14T05:39:58.725Z,5.50
2022-11-14T05:42:44.207Z,5.00
2022-11-14T05:45:31.159Z,5.45
2022-11-14T05:48:16.381Z,5.50
2022-11-14T05:51:04.814Z,5.60
2022-11-14T05:53:50.439Z,5.57
2022-11-14T05:56:36.243Z,5.10
2022-11-14T05:59:21.617Z,5.55
2022-11-14T06:02:06.976Z,5.53
2022-11-14T06:04:52.325Z,5.75
2022-11-14T06:07:39.314Z,5.43
2022-11-14T06:10:25.137Z,5.68
2022-11-14T06:13:10.668Z,5.97
2022-11-14T06:16:03.826Z,5.55
2022-11-14T06:18:49.332Z,5.82
2022-11-14T06:21:34.821Z,5.72
2022-11-14T06:24:20.375Z,6.35
2022-11-14T06:27:05.757Z,6.60
2022-11-14T06:29:51.236Z,6.00
2022-11-14T06:32:36.661Z,5.40
2022-11-14T06:35:23.264Z,6.57
2022-11-14T06:38:08.517Z,6.38
2022-11-14T06:41:05.481Z,6.72
2022-11-14T06:43:54.158Z,5.75
2022-11-14T06:46:39.512Z,6.32
2022-11-14T06:49:25.113Z,6.82
2022-11-14T06:52:11.063Z,6.13
2022-11-14T06:54:56.164Z,5.95
2022-11-14T06:57:41.643Z,6.43
2022-11-14T07:00:27.120Z,6.45
2022-11-14T07:03:12.611Z,6.20
2022-11-14T07:05:59.357Z,7.00
2022-11-14T07:08:44.719Z,6.22
2022-11-14T07:11:32.064Z,5.70
2022-11-14T07:14:17.345Z,6.72
2022-11-14T07:17:02.726Z,6.65
2022-11-14T07:19:48.306Z,6.18
2022-11-14T07:22:33.701Z,6.45
2022-11-14T07:25:21.112Z,6.35
2022-11-14T07:28:07.435Z,5.82
2022-11-14T07:30:52.677Z,6.38
2022-11-14T07:33:38.807Z,5.47
2022-11-14T07:36:24.424Z,5.78
2022-11-14T07:39:09.809Z,5.82
2022-11-14T07:41:55.100Z,5.82
2022-11-14T07:44:40.438Z,6.00
2022-11-14T07:47:27.145Z,6.28
2022-11-14T07:50:15.192Z,5.78
2022-11-14T07:53:04.402Z,6.38
2022-11-14T07:55:49.682Z,6.97
2022-11-14T07:58:36.463Z,9.55
2022-11-14T08:01:21.699Z,8.35
2022-11-14T08:04:07.306Z,8.15
2022-11-14T08:06:52.675Z,7.55
2022-11-14T08:09:37.956Z,8.25
2022-11-14T08:12:23.495Z,8.07
2022-11-14T08:15:11.156Z,7.18
2022-11-14T08:18:00.929Z,7.82
2022-11-14T08:20:46.782Z,8.45
2022-11-14T08:23:32.723Z,8.23
2022-11-14T08:26:18.011Z,7.63
2022-11-14T08:29:03.749Z,7.13
2022-11-14T08:31:49.481Z,8.73
2022-11-14T08:34:36.361Z,7.43
2022-11-14T08:37:21.914Z,8.02
2022-11-14T08:40:07.919Z,8.02
2022-11-14T08:42:59.863Z,8.13
2022-11-14T08:45:45.344Z,8.80
2022-11-14T08:48:33.723Z,8.52
2022-11-14T08:51:19.330Z,8.05
2022-11-14T08:54:04.847Z,7.95
2022-11-14T08:56:50.339Z,7.90
2022-11-14T08:59:35.700Z,7.65
2022-11-14T09:02:21.307Z,7.93
2022-11-14T09:05:07.191Z,7.85
2022-11-14T09:07:52.631Z,7.63
2022-11-14T09:10:38.682Z,8.75
2022-11-14T09:13:24.161Z,9.07
2022-11-14T09:16:09.923Z,9.15
2022-11-14T09:18:55.321Z,8.80
2022-11-14T09:21:41.313Z,8.93
2022-11-14T09:24:26.697Z,8.10
2022-11-14T09:27:12.038Z,8.73
2022-11-14T09:29:57.402Z,8.65
2022-11-14T09:32:42.685Z,8.45
2022-11-14T09:35:29.531Z,8.98
2022-11-14T09:38:14.940Z,9.32
2022-11-14T09:41:10.511Z,9.15
2022-11-14T09:44:04.737Z,9.40
2022-11-14T09:46:59.903Z,8.90
2022-11-14T09:49:46.447Z,8.38
2022-11-14T09:52:37.353Z,8.35
2022-11-14T09:55:36.457Z,8.48
2022-11-14T09:58:23.324Z,8.30
2022-11-14T10:01:28.588Z,9.27
2022-11-14T10:04:32.489Z,8.45
2022-11-14T10:07:17.705Z,9.13
2022-11-14T10:10:14.564Z,9.60
2022-11-14T10:13:11.972Z,9.13
2022-11-14T10:16:19.645Z,7.78
2022-11-14T10:19:19.264Z,8.20
2022-11-14T10:22:18.343Z,8.90
2022-11-14T10:25:30.837Z,7.82
2022-11-14T10:28:38.384Z,8.55
2022-11-14T10:31:29.689Z,7.97
2022-11-14T10:34:48.309Z,7.97
2022-11-14T10:37:37.219Z,9.43
2022-11-14T10:40:25.872Z,9.85
2022-11-14T10:43:17.062Z,10.55
2022-11-14T10:46:09.305Z,10.50
2022-11-14T10:48:59.923Z,10.63
2022-11-14T10:51:59.413Z,9.02
2022-11-14T10:54:50.587Z,11.02
2022-11-14T10:57:35.788Z,10.10
2022-11-14T11:00:23.457Z,10.00
2022-11-14T11:03:08.845Z,10.48
2022-11-14T11:06:00.275Z,10.82
2022-11-14T11:09:03.935Z,10.75
2022-11-14T11:11:57.989Z,11.23
2022-11-14T11:14:44.780Z,10.73
2022-11-14T11:17:36.135Z,12.15
2022-11-14T11:20:29.651Z,10.40
2022-11-14T11:23:21.911Z,11.30
2022-11-14T11:26:23.390Z,10.80
2022-11-14T11:29:11.634Z,10.25
2022-11-14T11:31:58.969Z,10.57
2022-11-14T11:34:44.918Z,12.15
2022-11-14T11:37:55.636Z,10.75
2022-11-14T11:40:44.253Z,11.68
2022-11-14T11:43:51.289Z,11.23
2022-11-14T11:46:57.675Z,12.10
2022-11-14T11:49:50.031Z,11.77
2022-11-14T11:52:49.021Z,11.68
2022-11-14T11:55:44.185Z,11.43
2022-11-14T11:58:32.327Z,12.48
2022-11-14T12:01:18.464Z,11.27
2022-11-14T12:04:04.422Z,12.38
2022-11-14T12:07:12.439Z,12.00
2022-11-14T12:10:10.350Z,13.20
2022-11-14T12:13:17.930Z,13.45
2022-11-14T12:16:36.450Z,11.23
2022-11-14T12:19:27.825Z,12.63
2022-11-14T12:22:47.629Z,12.73
2022-11-14T12:26:00.869Z,11.45
2022-11-14T12:29:07.215Z,13.52
2022-11-14T12:32:02.897Z,12.30
2022-11-14T12:34:50.046Z,14.00
2022-11-14T12:37:42.762Z,13.15
2022-11-14T12:40:41.169Z,12.55
2022-11-14T12:43:40.419Z,13.05
2022-11-14T12:46:25.696Z,12.38
2022-11-14T12:49:37.008Z,13.40
2022-11-14T12:52:40.540Z,14.25
2022-11-14T12:55:26.323Z,14.07
2022-11-14T12:58:38.662Z,14.65
2022-11-14T13:01:58.021Z,14.10
2022-11-14T13:04:56.359Z,13.55
2022-11-14T13:08:09.864Z,14.02
2022-11-14T13:10:55.221Z,13.57
2022-11-14T13:14:20.436Z,14.23
2022-11-14T13:17:36.542Z,14.95
2022-11-14T13:20:40.425Z,14.98
2022-11-14T13:23:25.829Z,14.52
2022-11-14T13:26:11.519Z,14.90
2022-11-14T13:28:57.989Z,16.50
2022-11-14T13:31:49.608Z,14.90
2022-11-14T13:34:56.718Z,15.82
2022-11-14T13:38:00.234Z,15.98
2022-11-14T13:41:08.709Z,15.27
2022-11-14T13:44:07.049Z,15.30
2022-11-14T13:47:03.845Z,14.23
2022-11-14T13:49:55.549Z,14.55
2022-11-14T13:52:47.603Z,13.80
2022-11-14T13:55:49.913Z,13.52
2022-11-14T13:58:56.021Z,13.43
2022-11-14T14:02:03.517Z,12.27
2022-11-14T14:05:26.510Z,13.13
2022-11-14T14:08:23.602Z,11.52
2022-11-14T14:11:41.634Z,12.82
2022-11-14T14:14:45.403Z,13.35
2022-11-14T14:17:42.497Z,11.98
2022-11-14T14:20:35.710Z,11.63
2022-11-14T14:23:39.764Z,12.05
2022-11-14T14:27:02.786Z,11.65
2022-11-14T14:30:01.912Z,12.15
2022-11-14T14:33:12.579Z,11.52
2022-11-14T14:35:58.093Z,10.68
2022-11-14T14:38:43.664Z,11.10
2022-11-14T14:41:32.379Z,10.05
2022-11-14T14:44:27.428Z,11.15
2022-11-14T14:47:17.112Z,10.75
2022-11-14T14:50:06.844Z,10.00
2022-11-14T14:53:02.977Z,9.80
2022-11-14T14:56:18.414Z,10.10
2022-11-14T14:59:19.259Z,10.00
2022-11-14T15:02:11.001Z,9.52
2022-11-14T15:04:59.235Z,10.63
2022-11-14T15:07:46.407Z,10.10
2022-11-14T15:10:32.440Z,9.82
2022-11-14T15:13:18.844Z,9.70
2022-11-14T15:16:06.736Z,8.65
2022-11-14T15:18:54.765Z,9.32
2022-11-14T15:21:40.209Z,8.95
2022-11-14T15:24:25.662Z,9.23
2022-11-14T15:27:19.488Z,8.82
2022-11-14T15:30:07.673Z,7.70
2022-11-14T15:32:58.580Z,7.82
2022-11-14T15:35:43.924Z,7.75
2022-11-14T15:38:43.526Z,7.55
2022-11-14T15:41:31.812Z,8.27
2022-11-14T15:44:33.797Z,7.88
2022-11-14T15:47:39.554Z,7.55
2022-11-14T15:50:32.191Z,6.72
2022-11-14T15:53:23.694Z,7.05
2022-11-14T15:56:12.936Z,7.38
2022-11-14T15:58:58.847Z,6.93
2022-11-14T16:01:46.375Z,6.72
2022-11-14T16:04:35.546Z,6.82
2022-11-14T16:07:21.949Z,8.13
2022-11-14T16:10:28.120Z,7.00
2022-11-14T16:13:13.290Z,6.80
2022-11-14T16:15:59.124Z,6.03
2022-11-14T16:18:44.477Z,6.90
2022-11-14T16:21:30.150Z,6.38
2022-11-14T16:24:21.834Z,5.78
2022-11-14T16:27:07.492Z,6.82
2022-11-14T16:29:53.705Z,7.03
2022-11-14T16:32:40.609Z,5.55
2022-11-14T16:35:27.314Z,5.60
2022-11-14T16:38:13.788Z,6.70
2022-11-14T16:41:01.896Z,6.85
2022-11-14T16:43:47.128Z,6.32
2022-11-14T16:46:32.601Z,6.93
2022-11-14T16:49:19.593Z,6.22
2022-11-14T16:52:08.506Z,7.05
2022-11-14T16:54:53.950Z,5.53
2022-11-14T16:57:40.032Z,6.18
2022-11-14T17:00:25.603Z,6.35
2022-11-14T17:03:10.999Z,6.05
2022-11-14T17:05:56.807Z,6.53
2022-11-14T17:08:42.030Z,6.38
2022-11-14T17:11:28.359Z,6.70
2022-11-14T17:14:13.657Z,6.88
2022-11-14T17:17:02.488Z,6.82
2022-11-14T17:19:47.977Z,7.07
2022-11-14T17:22:33.617Z,6.80
2022-11-14T17:25:19.193Z,7.03
2022-11-14T17:28:04.868Z,7.00
2022-11-14T17:30:50.161Z,6.82
2022-11-14T17:33:36.407Z,7.25
2022-11-14T17:36:23.012Z,7.03
2022-11-14T17:39:08.462Z,6.65
2022-11-14T17:41:54.086Z,8.68
2022-11-14T17:44:39.688Z,7.90
2022-11-14T17:47:25.035Z,8.20
2022-11-14T17:50:10.841Z,8.45
2022-11-14T17:52:56.122Z,8.32
2022-11-14T17:55:41.516Z,9.30
2022-11-14T17:58:31.598Z,9.52
2022-11-14T18:01:23.369Z,9.77
2022-11-14T18:04:08.801Z,9.43
2022-11-14T18:06:54.726Z,10.48
2022-11-14T18:09:41.357Z,10.10
2022-11-14T18:12:26.825Z,10.80
2022-11-14T18:15:12.712Z,10.43
2022-11-14T18:17:58.539Z,9.43
2022-11-14T18:20:43.994Z,12.02
2022-11-14T18:23:29.449Z,11.48
2022-11-14T18:26:17.207Z,11.90
2022-11-14T18:29:02.936Z,13.15
2022-11-14T18:31:48.568Z,11.73
2022-11-14T18:34:36.875Z,11.13
2022-11-14T18:37:23.166Z,10.70
2022-11-14T18:40:16.322Z,10.27
2022-11-14T18:43:02.623Z,10.63
2022-11-14T18:45:48.250Z,11.15
2022-11-14T18:48:33.696Z,11.82
2022-11-14T18:51:21.628Z,11.30
2022-11-14T18:54:09.277Z,11.85
2022-11-14T18:56:54.539Z,10.70
2022-11-14T18:59:40.094Z,11.38
2022-11-14T19:02:25.596Z,10.23
2022-11-14T19:05:11.001Z,11.15
2022-11-14T19:07:56.638Z,10.18
2022-11-14T19:10:41.746Z,9.95
2022-11-14T19:13:27.643Z,11.70
2022-11-14T19:16:13.196Z,11.25
2022-11-14T19:18:59.394Z,11.02
2022-11-14T19:21:44.678Z,10.90
2022-11-14T19:24:30.359Z,10.50
2022-11-14T19:27:16.188Z,11.27
2022-11-14T19:30:01.350Z,11.32
2022-11-14T19:32:46.944Z,11.10
2022-11-14T19:35:32.377Z,11.38
2022-11-14T19:38:17.716Z,10.18
2022-11-14T19:41:17.725Z,10.05
2022-11-14T19:44:03.123Z,9.80
2022-11-14T19:46:48.662Z,11.07
2022-11-14T19:49:34.274Z,9.50
2022-11-14T19:52:19.598Z,10.85
2022-11-14T19:55:05.243Z,11.80
2022-11-14T19:57:50.501Z,11.98
2022-11-14T20:00:35.785Z,12.38
2022-11-14T20:03:21.074Z,11.48
2022-11-14T20:06:23.352Z,11.85
2022-11-14T20:09:10.400Z,12.55
2022-11-14T20:11:55.672Z,10.32
2022-11-14T20:14:41.249Z,11.98
2022-11-14T20:17:26.748Z,11.80
2022-11-14T20:20:12.368Z,10.68
2022-11-14T20:22:57.722Z,10.10
2022-11-14T20:25:43.643Z,11.02
2022-11-14T20:28:29.476Z,11.18
2022-11-14T20:31:23.829Z,11.05
2022-11-14T20:34:11.671Z,9.90
2022-11-14T20:37:10.271Z,10.35
2022-11-14T20:39:56.558Z,18.00
2022-11-14T20:42:42.054Z,17.27
2022-11-14T20:45:27.999Z,15.93
2022-11-14T20:48:13.429Z,15.70
2022-11-14T20:51:06.419Z,15.45
2022-11-14T20:53:54.521Z,15.02
2022-11-14T20:56:39.953Z,14.45
2022-11-14T20:59:25.329Z,13.98
2022-11-14T21:02:12.503Z,13.85
2022-11-14T21:04:58.221Z,13.95
2022-11-14T21:07:43.431Z,14.30
2022-11-14T21:10:46.995Z,12.70
2022-11-14T21:13:53.883Z,13.38
2022-11-14T21:16:40.154Z,12.63
2022-11-14T21:19:26.169Z,13.35
2022-11-14T21:22:11.429Z,12.02
2022-11-14T21:24:56.770Z,13.02
2022-11-14T21:27:42.386Z,11.02
2022-11-14T21:30:31.958Z,12.18
2022-11-14T21:33:17.617Z,11.20
2022-11-14T21:36:30.261Z,10.73
2022-11-14T21:39:16.831Z,10.77
2022-11-14T21:42:03.305Z,11.23
2022-11-14T21:44:48.914Z,10.38
2022-11-14T21:47:34.579Z,10.75
2022-11-14T21:50:20.155Z,9.85
2022-11-14T21:53:15.853Z,8.98
2022-11-14T21:56:12.911Z,10.52
2022-11-14T21:59:21.370Z,10.32
2022-11-14T22:02:29.596Z,8.35
2022-11-14T22:05:15.186Z,8.77
2022-11-14T22:08:00.658Z,9.05
2022-11-14T22:10:46.046Z,8.70
2022-11-14T22:13:31.872Z,7.95
2022-11-14T22:16:19.543Z,12.13
2022-11-14T22:19:05.778Z,17.48
2022-11-14T22:21:51.528Z,19.52
2022-11-14T22:24:37.139Z,15.93
2022-11-14T22:27:22.522Z,16.52
2022-11-14T22:30:11.394Z,14.60
2022-11-14T22:32:59.913Z,13.07
2022-11-14T22:35:45.178Z,13.77
2022-11-14T22:38:32.317Z,13.85
2022-11-14T22:41:32.576Z,12.57
2022-11-14T22:44:18.599Z,12.77
2022-11-14T22:47:04.177Z,12.43
2022-11-14T22:49:49.638Z,12.05
2022-11-14T22:52:35.132Z,12.23
2022-11-14T22:55:20.677Z,12.05
2022-11-14T22:58:06.125Z,12.00
2022-11-14T23:00:53.358Z,11.57
2022-11-14T23:03:39.587Z,11.00
2022-11-14T23:06:26.343Z,11.18
2022-11-14T23:09:11.682Z,10.98
2022-11-14T23:11:56.753Z,10.13
2022-11-14T23:14:42.011Z,11.07
2022-11-14T23:17:27.696Z,10.50
2022-11-14T23:20:16.453Z,9.77
2022-11-14T23:23:03.012Z,9.68
2022-11-14T23:25:48.269Z,10.35
2022-11-14T23:28:34.088Z,9.18
2022-11-14T23:31:19.531Z,9.43
2022-11-14T23:34:05.011Z,9.45
2022-11-14T23:36:50.518Z,8.60
2022-11-14T23:39:36.050Z,9.07
2022-11-14T23:42:21.683Z,9.48
2022-11-14T23:45:07.470Z,8.35
2022-11-14T23:47:52.914Z,9.30
2022-11-14T23:50:38.347Z,8.57
2022-11-14T23:53:24.048Z,8.52
2022-11-14T23:56:13.216Z,8.52
2022-11-14T23:58:58.697Z,9.02
